sensor_id;sensor_type;location;lat;lon;timestamp;temperature;humidity
7234;DHT22;3658;47.992;10.158;2022-12-04T00:02:11;20.40;41.40
7234;DHT22;3658;47.992;10.158;2022-12-04T00:04:38;20.40;41.40
7234;DHT22;3658;47.992;10.158;2022-12-04T00:07:05;20.40;41.50
7234;DHT22;3658;47.992;10.158;2022-12-04T00:09:32;20.40;41.40
7234;DHT22;3658;47.992;10.158;2022-12-04T00:11:59;20.40;41.40
7234;DHT22;3658;47.992;10.158;2022-12-04T00:14:26;20.40;41.40
7234;DHT22;3658;47.992;10.158;2022-12-04T00:16:54;20.40;41.40
7234;DHT22;3658;47.992;10.158;2022-12-04T00:19:21;20.40;41.40
7234;DHT22;3658;47.992;10.158;2022-12-04T00:21:49;20.40;41.40
7234;DHT22;3658;47.992;10.158;2022-12-04T00:24:16;20.40;41.40
7234;DHT22;3658;47.992;10.158;2022-12-04T00:26:43;20.40;42.10
7234;DHT22;3658;47.992;10.158;2022-12-04T00:29:10;20.40;41.50
7234;DHT22;3658;47.992;10.158;2022-12-04T00:31:37;20.40;41.40
7234;DHT22;3658;47.992;10.158;2022-12-04T00:34:05;20.40;41.40
7234;DHT22;3658;47.992;10.158;2022-12-04T00:36:32;20.40;41.40
7234;DHT22;3658;47.992;10.158;2022-12-04T00:38:59;20.40;41.40
7234;DHT22;3658;47.992;10.158;2022-12-04T00:41:28;20.50;41.40
7234;DHT22;3658;47.992;10.158;2022-12-04T00:43:55;20.40;41.40
7234;DHT22;3658;47.992;10.158;2022-12-04T00:46:22;20.40;41.40
7234;DHT22;3658;47.992;10.158;2022-12-04T00:48:50;20.40;41.40
7234;DHT22;3658;47.992;10.158;2022-12-04T00:51:20;20.40;41.40
7234;DHT22;3658;47.992;10.158;2022-12-04T00:53:47;20.50;41.50
7234;DHT22;3658;47.992;10.158;2022-12-04T00:56:18;20.50;41.50
7234;DHT22;3658;47.992;10.158;2022-12-04T00:58:46;20.50;41.40
7234;DHT22;3658;47.992;10.158;2022-12-04T01:01:14;20.50;41.40
7234;DHT22;3658;47.992;10.158;2022-12-04T01:03:43;20.50;41.40
7234;DHT22;3658;47.992;10.158;2022-12-04T01:06:19;20.40;41.40
7234;DHT22;3658;47.992;10.158;2022-12-04T01:08:46;20.50;41.40
7234;DHT22;3658;47.992;10.158;2022-12-04T01:11:14;20.50;41.40
7234;DHT22;3658;47.992;10.158;2022-12-04T01:13:41;20.50;41.40
7234;DHT22;3658;47.992;10.158;2022-12-04T01:16:08;20.40;41.30
7234;DHT22;3658;47.992;10.158;2022-12-04T01:18:35;20.40;41.30
7234;DHT22;3658;47.992;10.158;2022-12-04T01:21:02;20.40;41.40
7234;DHT22;3658;47.992;10.158;2022-12-04T01:23:30;20.40;41.30
7234;DHT22;3658;47.992;10.158;2022-12-04T01:25:57;20.50;41.40
7234;DHT22;3658;47.992;10.158;2022-12-04T01:28:25;20.40;41.30
7234;DHT22;3658;47.992;10.158;2022-12-04T01:30:57;20.50;41.40
7234;DHT22;3658;47.992;10.158;2022-12-04T01:33:24;20.50;41.40
7234;DHT22;3658;47.992;10.158;2022-12-04T01:35:52;20.50;41.50
7234;DHT22;3658;47.992;10.158;2022-12-04T01:38:19;20.50;41.40
7234;DHT22;3658;47.992;10.158;2022-12-04T01:40:48;20.50;41.40
7234;DHT22;3658;47.992;10.158;2022-12-04T01:43:16;20.50;41.40
7234;DHT22;3658;47.992;10.158;2022-12-04T01:45:44;20.50;41.40
7234;DHT22;3658;47.992;10.158;2022-12-04T01:48:20;20.50;41.40
7234;DHT22;3658;47.992;10.158;2022-12-04T01:50:51;20.50;41.30
7234;DHT22;3658;47.992;10.158;2022-12-04T01:53:19;20.50;41.30
7234;DHT22;3658;47.992;10.158;2022-12-04T01:55:48;20.50;41.40
7234;DHT22;3658;47.992;10.158;2022-12-04T01:58:17;20.50;41.30
7234;DHT22;3658;47.992;10.158;2022-12-04T02:00:51;20.50;41.40
7234;DHT22;3658;47.992;10.158;2022-12-04T02:03:20;20.50;41.30
7234;DHT22;3658;47.992;10.158;2022-12-04T02:05:47;20.50;41.30
7234;DHT22;3658;47.992;10.158;2022-12-04T02:08:14;20.50;41.30
7234;DHT22;3658;47.992;10.158;2022-12-04T02:10:50;20.50;41.30
7234;DHT22;3658;47.992;10.158;2022-12-04T02:13:23;20.50;41.30
7234;DHT22;3658;47.992;10.158;2022-12-04T02:15:57;20.50;41.30
7234;DHT22;3658;47.992;10.158;2022-12-04T02:18:30;20.50;41.30
7234;DHT22;3658;47.992;10.158;2022-12-04T02:21:03;20.50;41.30
7234;DHT22;3658;47.992;10.158;2022-12-04T02:26:39;20.50;41.30
7234;DHT22;3658;47.992;10.158;2022-12-04T02:29:14;20.50;41.30
7234;DHT22;3658;47.992;10.158;2022-12-04T02:31:49;20.50;41.40
7234;DHT22;3658;47.992;10.158;2022-12-04T02:34:24;20.50;41.30
7234;DHT22;3658;47.992;10.158;2022-12-04T02:36:56;20.50;41.40
7234;DHT22;3658;47.992;10.158;2022-12-04T02:39:27;20.50;41.30
7234;DHT22;3658;47.992;10.158;2022-12-04T02:42:00;20.50;41.30
7234;DHT22;3658;47.992;10.158;2022-12-04T02:44:35;20.50;41.30
7234;DHT22;3658;47.992;10.158;2022-12-04T02:47:06;20.50;41.40
7234;DHT22;3658;47.992;10.158;2022-12-04T02:49:40;20.50;41.40
7234;DHT22;3658;47.992;10.158;2022-12-04T02:52:13;20.50;41.40
7234;DHT22;3658;47.992;10.158;2022-12-04T02:54:45;20.50;41.40
7234;DHT22;3658;47.992;10.158;2022-12-04T02:57:17;20.50;41.40
7234;DHT22;3658;47.992;10.158;2022-12-04T02:59:48;20.50;41.30
7234;DHT22;3658;47.992;10.158;2022-12-04T03:02:20;20.50;41.30
7234;DHT22;3658;47.992;10.158;2022-12-04T03:04:50;20.50;41.30
7234;DHT22;3658;47.992;10.158;2022-12-04T03:07:22;20.50;41.30
7234;DHT22;3658;47.992;10.158;2022-12-04T03:09:52;20.50;41.40
7234;DHT22;3658;47.992;10.158;2022-12-04T03:12:26;20.50;41.30
7234;DHT22;3658;47.992;10.158;2022-12-04T03:15:00;20.50;41.30
7234;DHT22;3658;47.992;10.158;2022-12-04T03:17:30;20.60;41.30
7234;DHT22;3658;47.992;10.158;2022-12-04T03:20:02;20.60;41.30
7234;DHT22;3658;47.992;10.158;2022-12-04T03:22:32;20.60;41.40
7234;DHT22;3658;47.992;10.158;2022-12-04T03:25:03;20.60;41.30
7234;DHT22;3658;47.992;10.158;2022-12-04T03:27:35;20.60;42.00
7234;DHT22;3658;47.992;10.158;2022-12-04T03:30:08;20.50;41.30
7234;DHT22;3658;47.992;10.158;2022-12-04T03:32:40;20.50;41.40
7234;DHT22;3658;47.992;10.158;2022-12-04T03:35:14;20.60;41.30
7234;DHT22;3658;47.992;10.158;2022-12-04T03:37:48;20.60;41.40
7234;DHT22;3658;47.992;10.158;2022-12-04T03:40:20;20.50;41.30
7234;DHT22;3658;47.992;10.158;2022-12-04T03:42:55;20.50;41.40
7234;DHT22;3658;47.992;10.158;2022-12-04T03:45:28;20.50;41.40
7234;DHT22;3658;47.992;10.158;2022-12-04T03:48:00;20.60;41.40
7234;DHT22;3658;47.992;10.158;2022-12-04T03:50:34;20.50;41.30
7234;DHT22;3658;47.992;10.158;2022-12-04T03:53:07;20.50;41.40
7234;DHT22;3658;47.992;10.158;2022-12-04T03:55:40;20.50;41.40
7234;DHT22;3658;47.992;10.158;2022-12-04T03:58:15;20.50;41.40
7234;DHT22;3658;47.992;10.158;2022-12-04T04:00:46;20.50;42.00
7234;DHT22;3658;47.992;10.158;2022-12-04T04:03:17;20.50;41.40
7234;DHT22;3658;47.992;10.158;2022-12-04T04:05:49;20.60;41.40
7234;DHT22;3658;47.992;10.158;2022-12-04T04:08:22;20.60;41.40
7234;DHT22;3658;47.992;10.158;2022-12-04T04:10:54;20.60;41.40
7234;DHT22;3658;47.992;10.158;2022-12-04T04:13:27;20.60;41.40
7234;DHT22;3658;47.992;10.158;2022-12-04T04:16:18;20.60;42.00
7234;DHT22;3658;47.992;10.158;2022-12-04T04:19:04;20.50;41.30
7234;DHT22;3658;47.992;10.158;2022-12-04T04:21:52;20.60;41.40
7234;DHT22;3658;47.992;10.158;2022-12-04T04:24:46;20.60;41.30
7234;DHT22;3658;47.992;10.158;2022-12-04T04:27:15;20.60;41.40
7234;DHT22;3658;47.992;10.158;2022-12-04T04:29:42;20.50;41.30
7234;DHT22;3658;47.992;10.158;2022-12-04T04:32:13;20.50;41.30
7234;DHT22;3658;47.992;10.158;2022-12-04T04:34:49;20.60;41.40
7234;DHT22;3658;47.992;10.158;2022-12-04T04:37:26;20.60;41.40
7234;DHT22;3658;47.992;10.158;2022-12-04T04:39:59;20.60;41.40
7234;DHT22;3658;47.992;10.158;2022-12-04T04:42:29;20.60;41.40
7234;DHT22;3658;47.992;10.158;2022-12-04T04:45:03;20.60;41.40
7234;DHT22;3658;47.992;10.158;2022-12-04T04:47:37;20.60;41.40
7234;DHT22;3658;47.992;10.158;2022-12-04T04:50:09;20.60;41.40
7234;DHT22;3658;47.992;10.158;2022-12-04T04:52:38;20.60;41.40
7234;DHT22;3658;47.992;10.158;2022-12-04T04:55:07;20.60;41.30
7234;DHT22;3658;47.992;10.158;2022-12-04T04:57:35;20.60;41.40
7234;DHT22;3658;47.992;10.158;2022-12-04T05:00:04;20.60;41.40
7234;DHT22;3658;47.992;10.158;2022-12-04T05:02:33;20.60;41.40
7234;DHT22;3658;47.992;10.158;2022-12-04T05:05:00;20.60;41.30
7234;DHT22;3658;47.992;10.158;2022-12-04T05:07:27;20.60;41.30
7234;DHT22;3658;47.992;10.158;2022-12-04T05:09:54;20.60;41.30
7234;DHT22;3658;47.992;10.158;2022-12-04T05:12:21;20.60;41.30
7234;DHT22;3658;47.992;10.158;2022-12-04T05:14:48;20.60;41.40
7234;DHT22;3658;47.992;10.158;2022-12-04T05:17:15;20.60;41.40
7234;DHT22;3658;47.992;10.158;2022-12-04T05:19:43;20.60;41.40
7234;DHT22;3658;47.992;10.158;2022-12-04T05:22:18;20.60;41.40
7234;DHT22;3658;47.992;10.158;2022-12-04T05:24:46;20.60;41.40
7234;DHT22;3658;47.992;10.158;2022-12-04T05:27:13;20.60;41.40
7234;DHT22;3658;47.992;10.158;2022-12-04T05:29:40;20.60;41.40
7234;DHT22;3658;47.992;10.158;2022-12-04T05:32:06;20.60;41.40
7234;DHT22;3658;47.992;10.158;2022-12-04T05:34:33;20.60;41.40
7234;DHT22;3658;47.992;10.158;2022-12-04T05:37:02;20.60;41.40
7234;DHT22;3658;47.992;10.158;2022-12-04T05:39:29;20.60;41.40
7234;DHT22;3658;47.992;10.158;2022-12-04T05:41:55;20.60;41.40
7234;DHT22;3658;47.992;10.158;2022-12-04T05:44:22;20.60;41.40
7234;DHT22;3658;47.992;10.158;2022-12-04T05:46:49;20.60;41.40
7234;DHT22;3658;47.992;10.158;2022-12-04T05:49:16;20.60;41.40
7234;DHT22;3658;47.992;10.158;2022-12-04T05:51:43;20.60;41.40
7234;DHT22;3658;47.992;10.158;2022-12-04T05:54:12;20.60;41.40
7234;DHT22;3658;47.992;10.158;2022-12-04T05:56:38;20.60;41.30
7234;DHT22;3658;47.992;10.158;2022-12-04T05:59:05;20.60;41.30
7234;DHT22;3658;47.992;10.158;2022-12-04T06:01:32;20.60;41.30
7234;DHT22;3658;47.992;10.158;2022-12-04T06:03:59;20.60;41.30
7234;DHT22;3658;47.992;10.158;2022-12-04T06:06:26;20.60;41.30
7234;DHT22;3658;47.992;10.158;2022-12-04T06:08:55;20.60;41.30
7234;DHT22;3658;47.992;10.158;2022-12-04T06:11:26;20.60;41.40
7234;DHT22;3658;47.992;10.158;2022-12-04T06:13:53;20.60;41.30
7234;DHT22;3658;47.992;10.158;2022-12-04T06:16:22;20.70;41.40
7234;DHT22;3658;47.992;10.158;2022-12-04T06:18:51;20.70;41.40
7234;DHT22;3658;47.992;10.158;2022-12-04T06:21:18;20.60;41.30
7234;DHT22;3658;47.992;10.158;2022-12-04T06:23:45;20.60;41.30
7234;DHT22;3658;47.992;10.158;2022-12-04T06:26:12;20.60;41.40
7234;DHT22;3658;47.992;10.158;2022-12-04T06:28:41;20.60;41.30
7234;DHT22;3658;47.992;10.158;2022-12-04T06:31:09;20.60;41.30
7234;DHT22;3658;47.992;10.158;2022-12-04T06:33:37;20.60;41.40
7234;DHT22;3658;47.992;10.158;2022-12-04T06:36:06;20.60;41.30
7234;DHT22;3658;47.992;10.158;2022-12-04T06:38:34;20.60;41.40
7234;DHT22;3658;47.992;10.158;2022-12-04T06:41:02;20.60;41.30
7234;DHT22;3658;47.992;10.158;2022-12-04T06:43:30;20.70;41.30
7234;DHT22;3658;47.992;10.158;2022-12-04T06:46:03;20.60;41.30
7234;DHT22;3658;47.992;10.158;2022-12-04T06:48:31;20.60;41.30
7234;DHT22;3658;47.992;10.158;2022-12-04T06:50:58;20.60;41.30
7234;DHT22;3658;47.992;10.158;2022-12-04T06:53:26;20.60;41.30
7234;DHT22;3658;47.992;10.158;2022-12-04T06:55:55;20.60;41.30
7234;DHT22;3658;47.992;10.158;2022-12-04T06:58:22;20.60;41.30
7234;DHT22;3658;47.992;10.158;2022-12-04T07:00:49;20.60;41.30
7234;DHT22;3658;47.992;10.158;2022-12-04T07:03:17;20.70;41.40
7234;DHT22;3658;47.992;10.158;2022-12-04T07:05:44;20.60;41.30
7234;DHT22;3658;47.992;10.158;2022-12-04T07:08:11;20.60;41.40
7234;DHT22;3658;47.992;10.158;2022-12-04T07:10:39;20.70;41.40
7234;DHT22;3658;47.992;10.158;2022-12-04T07:13:06;20.70;41.40
7234;DHT22;3658;47.992;10.158;2022-12-04T07:15:35;20.60;41.40
7234;DHT22;3658;47.992;10.158;2022-12-04T07:18:02;20.60;41.40
7234;DHT22;3658;47.992;10.158;2022-12-04T07:20:31;20.60;41.40
7234;DHT22;3658;47.992;10.158;2022-12-04T07:22:58;20.60;41.40
7234;DHT22;3658;47.992;10.158;2022-12-04T07:25:25;20.60;41.40
7234;DHT22;3658;47.992;10.158;2022-12-04T07:27:54;20.70;41.40
7234;DHT22;3658;47.992;10.158;2022-12-04T07:30:21;20.70;41.50
7234;DHT22;3658;47.992;10.158;2022-12-04T07:32:48;20.70;41.40
7234;DHT22;3658;47.992;10.158;2022-12-04T07:35:15;20.70;41.40
7234;DHT22;3658;47.992;10.158;2022-12-04T07:37:43;20.60;41.30
7234;DHT22;3658;47.992;10.158;2022-12-04T07:40:11;20.70;41.40
7234;DHT22;3658;47.992;10.158;2022-12-04T07:42:39;20.60;41.30
7234;DHT22;3658;47.992;10.158;2022-12-04T07:45:06;20.60;41.40
7234;DHT22;3658;47.992;10.158;2022-12-04T07:47:34;20.70;41.40
7234;DHT22;3658;47.992;10.158;2022-12-04T07:50:01;20.70;41.40
7234;DHT22;3658;47.992;10.158;2022-12-04T07:52:28;20.70;41.40
7234;DHT22;3658;47.992;10.158;2022-12-04T07:54:56;20.70;41.40
7234;DHT22;3658;47.992;10.158;2022-12-04T07:57:23;20.70;41.40
7234;DHT22;3658;47.992;10.158;2022-12-04T07:59:50;20.70;41.40
7234;DHT22;3658;47.992;10.158;2022-12-04T08:02:17;20.70;41.40
7234;DHT22;3658;47.992;10.158;2022-12-04T08:04:45;20.70;41.40
7234;DHT22;3658;47.992;10.158;2022-12-04T08:07:12;20.70;41.40
7234;DHT22;3658;47.992;10.158;2022-12-04T08:09:39;20.70;41.40
7234;DHT22;3658;47.992;10.158;2022-12-04T08:12:07;20.70;41.40
7234;DHT22;3658;47.992;10.158;2022-12-04T08:14:34;20.70;41.40
7234;DHT22;3658;47.992;10.158;2022-12-04T08:17:01;20.70;41.40
7234;DHT22;3658;47.992;10.158;2022-12-04T08:19:28;20.70;41.30
7234;DHT22;3658;47.992;10.158;2022-12-04T08:21:55;20.70;41.40
7234;DHT22;3658;47.992;10.158;2022-12-04T08:24:22;20.70;41.40
7234;DHT22;3658;47.992;10.158;2022-12-04T08:26:49;20.70;41.40
7234;DHT22;3658;47.992;10.158;2022-12-04T08:29:17;20.70;41.40
7234;DHT22;3658;47.992;10.158;2022-12-04T08:31:44;20.70;41.40
7234;DHT22;3658;47.992;10.158;2022-12-04T08:34:11;20.60;41.40
7234;DHT22;3658;47.992;10.158;2022-12-04T08:36:38;20.50;41.30
7234;DHT22;3658;47.992;10.158;2022-12-04T08:39:05;20.40;41.60
7234;DHT22;3658;47.992;10.158;2022-12-04T08:41:33;20.40;41.90
7234;DHT22;3658;47.992;10.158;2022-12-04T08:44:00;20.30;42.00
7234;DHT22;3658;47.992;10.158;2022-12-04T08:46:28;20.30;42.20
7234;DHT22;3658;47.992;10.158;2022-12-04T08:48:55;20.30;42.40
7234;DHT22;3658;47.992;10.158;2022-12-04T08:51:24;20.30;42.40
7234;DHT22;3658;47.992;10.158;2022-12-04T08:53:53;20.30;42.50
7234;DHT22;3658;47.992;10.158;2022-12-04T08:56:21;20.30;42.50
7234;DHT22;3658;47.992;10.158;2022-12-04T08:58:48;20.20;42.40
7234;DHT22;3658;47.992;10.158;2022-12-04T09:01:16;20.30;42.50
7234;DHT22;3658;47.992;10.158;2022-12-04T09:03:44;20.20;42.40
7234;DHT22;3658;47.992;10.158;2022-12-04T09:06:12;20.20;42.50
7234;DHT22;3658;47.992;10.158;2022-12-04T09:08:40;20.20;42.50
7234;DHT22;3658;47.992;10.158;2022-12-04T09:11:09;20.20;42.50
7234;DHT22;3658;47.992;10.158;2022-12-04T09:13:37;20.20;42.50
7234;DHT22;3658;47.992;10.158;2022-12-04T09:16:07;20.20;42.40
7234;DHT22;3658;47.992;10.158;2022-12-04T09:18:35;20.20;42.40
7234;DHT22;3658;47.992;10.158;2022-12-04T09:21:05;20.20;42.40
7234;DHT22;3658;47.992;10.158;2022-12-04T09:23:33;20.20;42.40
7234;DHT22;3658;47.992;10.158;2022-12-04T09:26:01;20.20;42.50
7234;DHT22;3658;47.992;10.158;2022-12-04T09:28:28;20.20;42.40
7234;DHT22;3658;47.992;10.158;2022-12-04T09:30:56;20.20;42.40
7234;DHT22;3658;47.992;10.158;2022-12-04T09:33:23;20.20;42.50
7234;DHT22;3658;47.992;10.158;2022-12-04T09:35:50;20.20;42.50
7234;DHT22;3658;47.992;10.158;2022-12-04T09:38:19;20.20;42.50
7234;DHT22;3658;47.992;10.158;2022-12-04T09:40:51;20.20;42.40
7234;DHT22;3658;47.992;10.158;2022-12-04T09:43:27;20.20;42.40
7234;DHT22;3658;47.992;10.158;2022-12-04T09:46:01;20.20;42.60
7234;DHT22;3658;47.992;10.158;2022-12-04T09:48:33;20.20;42.80
7234;DHT22;3658;47.992;10.158;2022-12-04T09:51:02;20.20;43.10
7234;DHT22;3658;47.992;10.158;2022-12-04T09:53:40;20.30;43.30
7234;DHT22;3658;47.992;10.158;2022-12-04T09:56:11;20.30;43.30
7234;DHT22;3658;47.992;10.158;2022-12-04T09:58:41;20.30;43.20
7234;DHT22;3658;47.992;10.158;2022-12-04T10:01:19;20.30;43.10
7234;DHT22;3658;47.992;10.158;2022-12-04T10:03:47;20.30;43.10
7234;DHT22;3658;47.992;10.158;2022-12-04T10:06:18;20.40;43.20
7234;DHT22;3658;47.992;10.158;2022-12-04T10:08:52;20.40;43.70
7234;DHT22;3658;47.992;10.158;2022-12-04T10:11:26;20.30;43.00
7234;DHT22;3658;47.992;10.158;2022-12-04T10:14:12;20.20;41.20
7234;DHT22;3658;47.992;10.158;2022-12-04T10:16:51;20.00;38.90
7234;DHT22;3658;47.992;10.158;2022-12-04T10:19:24;19.80;37.50
7234;DHT22;3658;47.992;10.158;2022-12-04T10:22:06;19.70;37.00
7234;DHT22;3658;47.992;10.158;2022-12-04T10:24:42;19.50;36.80
7234;DHT22;3658;47.992;10.158;2022-12-04T10:27:16;19.50;36.30
7234;DHT22;3658;47.992;10.158;2022-12-04T10:29:46;19.40;36.10
7234;DHT22;3658;47.992;10.158;2022-12-04T10:32:18;19.40;35.90
7234;DHT22;3658;47.992;10.158;2022-12-04T10:34:48;19.30;36.00
7234;DHT22;3658;47.992;10.158;2022-12-04T10:37:16;19.30;36.10
7234;DHT22;3658;47.992;10.158;2022-12-04T10:39:49;19.20;34.50
7234;DHT22;3658;47.992;10.158;2022-12-04T10:42:26;19.30;34.50
7234;DHT22;3658;47.992;10.158;2022-12-04T10:44:54;19.50;35.10
7234;DHT22;3658;47.992;10.158;2022-12-04T10:47:21;19.70;35.70
7234;DHT22;3658;47.992;10.158;2022-12-04T10:49:57;19.90;36.10
7234;DHT22;3658;47.992;10.158;2022-12-04T10:52:25;20.10;36.10
7234;DHT22;3658;47.992;10.158;2022-12-04T10:54:57;20.20;36.50
7234;DHT22;3658;47.992;10.158;2022-12-04T10:57:35;20.30;36.90
7234;DHT22;3658;47.992;10.158;2022-12-04T11:00:04;20.30;37.20
7234;DHT22;3658;47.992;10.158;2022-12-04T11:02:49;20.30;37.50
7234;DHT22;3658;47.992;10.158;2022-12-04T11:05:24;20.40;37.80
7234;DHT22;3658;47.992;10.158;2022-12-04T11:07:54;20.50;38.10
7234;DHT22;3658;47.992;10.158;2022-12-04T11:10:27;20.40;38.20
7234;DHT22;3658;47.992;10.158;2022-12-04T11:13:05;20.50;38.40
7234;DHT22;3658;47.992;10.158;2022-12-04T11:15:34;20.50;38.60
7234;DHT22;3658;47.992;10.158;2022-12-04T11:18:08;20.60;38.80
7234;DHT22;3658;47.992;10.158;2022-12-04T11:20:35;20.60;39.00
7234;DHT22;3658;47.992;10.158;2022-12-04T11:23:04;20.60;39.10
7234;DHT22;3658;47.992;10.158;2022-12-04T11:25:34;20.60;39.30
7234;DHT22;3658;47.992;10.158;2022-12-04T11:28:03;20.60;39.40
7234;DHT22;3658;47.992;10.158;2022-12-04T11:30:32;20.70;39.60
7234;DHT22;3658;47.992;10.158;2022-12-04T11:33:00;20.70;39.60
7234;DHT22;3658;47.992;10.158;2022-12-04T11:35:29;20.70;39.80
7234;DHT22;3658;47.992;10.158;2022-12-04T11:38:00;20.70;39.90
7234;DHT22;3658;47.992;10.158;2022-12-04T11:40:29;20.70;40.00
7234;DHT22;3658;47.992;10.158;2022-12-04T11:43:00;20.70;40.10
7234;DHT22;3658;47.992;10.158;2022-12-04T11:45:27;20.70;40.20
7234;DHT22;3658;47.992;10.158;2022-12-04T11:47:56;20.70;40.30
7234;DHT22;3658;47.992;10.158;2022-12-04T11:50:30;20.80;40.40
7234;DHT22;3658;47.992;10.158;2022-12-04T11:53:05;20.70;40.60
7234;DHT22;3658;47.992;10.158;2022-12-04T11:55:41;20.80;40.80
7234;DHT22;3658;47.992;10.158;2022-12-04T11:58:30;20.80;40.80
7234;DHT22;3658;47.992;10.158;2022-12-04T12:01:19;20.80;40.80
7234;DHT22;3658;47.992;10.158;2022-12-04T12:04:05;20.80;40.90
7234;DHT22;3658;47.992;10.158;2022-12-04T12:06:35;20.80;41.10
7234;DHT22;3658;47.992;10.158;2022-12-04T12:09:14;20.80;41.00
7234;DHT22;3658;47.992;10.158;2022-12-04T12:11:46;20.80;41.10
7234;DHT22;3658;47.992;10.158;2022-12-04T12:14:22;20.80;41.20
7234;DHT22;3658;47.992;10.158;2022-12-04T12:16:57;20.80;41.20
7234;DHT22;3658;47.992;10.158;2022-12-04T12:22:35;20.90;41.40
7234;DHT22;3658;47.992;10.158;2022-12-04T12:25:12;20.90;41.50
7234;DHT22;3658;47.992;10.158;2022-12-04T12:27:55;20.90;41.40
7234;DHT22;3658;47.992;10.158;2022-12-04T12:30:29;20.90;41.50
7234;DHT22;3658;47.992;10.158;2022-12-04T12:33:02;20.90;41.50
7234;DHT22;3658;47.992;10.158;2022-12-04T12:35:37;20.90;41.60
7234;DHT22;3658;47.992;10.158;2022-12-04T12:38:08;20.90;41.70
7234;DHT22;3658;47.992;10.158;2022-12-04T12:40:39;21.00;41.70
7234;DHT22;3658;47.992;10.158;2022-12-04T12:43:12;21.00;41.80
7234;DHT22;3658;47.992;10.158;2022-12-04T12:45:47;21.00;41.90
7234;DHT22;3658;47.992;10.158;2022-12-04T12:48:25;20.90;41.40
7234;DHT22;3658;47.992;10.158;2022-12-04T12:50:57;20.70;40.70
7234;DHT22;3658;47.992;10.158;2022-12-04T12:53:32;20.50;40.60
7234;DHT22;3658;47.992;10.158;2022-12-04T12:56:01;20.50;40.80
7234;DHT22;3658;47.992;10.158;2022-12-04T12:58:34;20.40;40.80
7234;DHT22;3658;47.992;10.158;2022-12-04T13:01:10;20.40;40.80
7234;DHT22;3658;47.992;10.158;2022-12-04T13:03:44;20.40;40.80
7234;DHT22;3658;47.992;10.158;2022-12-04T13:06:17;20.40;40.90
7234;DHT22;3658;47.992;10.158;2022-12-04T13:08:53;20.30;40.80
7234;DHT22;3658;47.992;10.158;2022-12-04T13:11:26;20.30;40.90
7234;DHT22;3658;47.992;10.158;2022-12-04T13:13:57;20.30;41.00
7234;DHT22;3658;47.992;10.158;2022-12-04T13:16:27;20.30;41.00
7234;DHT22;3658;47.992;10.158;2022-12-04T13:19:05;20.30;41.00
7234;DHT22;3658;47.992;10.158;2022-12-04T13:21:36;20.30;41.10
7234;DHT22;3658;47.992;10.158;2022-12-04T13:24:29;20.30;41.10
7234;DHT22;3658;47.992;10.158;2022-12-04T13:27:02;20.30;41.20
7234;DHT22;3658;47.992;10.158;2022-12-04T13:29:43;20.30;41.90
7234;DHT22;3658;47.992;10.158;2022-12-04T13:35:23;20.30;41.40
7234;DHT22;3658;47.992;10.158;2022-12-04T13:38:05;20.30;41.50
7234;DHT22;3658;47.992;10.158;2022-12-04T13:40:37;20.30;41.80
7234;DHT22;3658;47.992;10.158;2022-12-04T13:43:17;20.30;42.00
7234;DHT22;3658;47.992;10.158;2022-12-04T13:45:47;20.30;42.00
7234;DHT22;3658;47.992;10.158;2022-12-04T13:48:29;20.30;42.30
7234;DHT22;3658;47.992;10.158;2022-12-04T13:53:46;20.30;42.20
7234;DHT22;3658;47.992;10.158;2022-12-04T13:56:24;20.30;42.10
7234;DHT22;3658;47.992;10.158;2022-12-04T13:58:58;20.30;42.10
7234;DHT22;3658;47.992;10.158;2022-12-04T14:01:29;20.30;42.20
7234;DHT22;3658;47.992;10.158;2022-12-04T14:04:02;20.20;42.20
7234;DHT22;3658;47.992;10.158;2022-12-04T14:06:34;20.30;42.30
7234;DHT22;3658;47.992;10.158;2022-12-04T14:09:04;20.30;42.90
7234;DHT22;3658;47.992;10.158;2022-12-04T14:11:41;20.30;44.50
7234;DHT22;3658;47.992;10.158;2022-12-04T14:14:20;20.30;45.10
7234;DHT22;3658;47.992;10.158;2022-12-04T14:16:48;20.40;45.10
7234;DHT22;3658;47.992;10.158;2022-12-04T14:19:28;20.30;44.90
7234;DHT22;3658;47.992;10.158;2022-12-04T14:21:57;20.40;45.10
7234;DHT22;3658;47.992;10.158;2022-12-04T14:24:32;20.30;45.10
7234;DHT22;3658;47.992;10.158;2022-12-04T14:27:01;20.30;45.40
7234;DHT22;3658;47.992;10.158;2022-12-04T14:29:36;20.30;44.90
7234;DHT22;3658;47.992;10.158;2022-12-04T14:32:07;20.30;44.10
7234;DHT22;3658;47.992;10.158;2022-12-04T14:34:36;20.20;43.80
7234;DHT22;3658;47.992;10.158;2022-12-04T14:37:04;20.20;43.60
7234;DHT22;3658;47.992;10.158;2022-12-04T14:39:34;20.10;43.50
7234;DHT22;3658;47.992;10.158;2022-12-04T14:42:05;20.10;43.40
7234;DHT22;3658;47.992;10.158;2022-12-04T14:44:33;20.10;43.30
7234;DHT22;3658;47.992;10.158;2022-12-04T14:47:07;20.00;43.10
7234;DHT22;3658;47.992;10.158;2022-12-04T14:50:00;20.00;43.20
7234;DHT22;3658;47.992;10.158;2022-12-04T14:52:33;20.00;43.20
7234;DHT22;3658;47.992;10.158;2022-12-04T14:55:06;20.00;43.10
7234;DHT22;3658;47.992;10.158;2022-12-04T14:57:45;20.00;43.00
7234;DHT22;3658;47.992;10.158;2022-12-04T15:00:16;20.00;42.80
7234;DHT22;3658;47.992;10.158;2022-12-04T15:02:45;20.00;42.80
7234;DHT22;3658;47.992;10.158;2022-12-04T15:05:19;20.00;42.70
7234;DHT22;3658;47.992;10.158;2022-12-04T15:07:50;20.00;42.50
7234;DHT22;3658;47.992;10.158;2022-12-04T15:10:20;20.10;42.50
7234;DHT22;3658;47.992;10.158;2022-12-04T15:13:05;20.00;42.40
7234;DHT22;3658;47.992;10.158;2022-12-04T15:15:32;20.10;42.40
7234;DHT22;3658;47.992;10.158;2022-12-04T15:18:01;20.00;42.30
7234;DHT22;3658;47.992;10.158;2022-12-04T15:20:32;20.10;42.20
7234;DHT22;3658;47.992;10.158;2022-12-04T15:23:01;20.00;42.10
7234;DHT22;3658;47.992;10.158;2022-12-04T15:25:34;20.00;42.00
7234;DHT22;3658;47.992;10.158;2022-12-04T15:28:06;20.00;42.00
7234;DHT22;3658;47.992;10.158;2022-12-04T15:30:35;20.00;42.00
7234;DHT22;3658;47.992;10.158;2022-12-04T15:33:04;20.00;42.00
7234;DHT22;3658;47.992;10.158;2022-12-04T15:35:33;20.00;42.20
7234;DHT22;3658;47.992;10.158;2022-12-04T15:38:00;20.00;42.10
7234;DHT22;3658;47.992;10.158;2022-12-04T15:40:29;20.00;42.10
7234;DHT22;3658;47.992;10.158;2022-12-04T15:43:06;19.90;42.10
7234;DHT22;3658;47.992;10.158;2022-12-04T15:45:39;19.90;42.20
7234;DHT22;3658;47.992;10.158;2022-12-04T15:48:06;19.90;42.90
7234;DHT22;3658;47.992;10.158;2022-12-04T15:50:34;19.80;42.20
7234;DHT22;3658;47.992;10.158;2022-12-04T15:53:06;19.80;42.20
7234;DHT22;3658;47.992;10.158;2022-12-04T15:55:36;19.80;42.30
7234;DHT22;3658;47.992;10.158;2022-12-04T15:58:06;19.70;42.30
7234;DHT22;3658;47.992;10.158;2022-12-04T16:00:36;19.70;42.30
7234;DHT22;3658;47.992;10.158;2022-12-04T16:03:06;19.70;42.40
7234;DHT22;3658;47.992;10.158;2022-12-04T16:05:46;19.70;42.40
7234;DHT22;3658;47.992;10.158;2022-12-04T16:08:24;19.70;42.50
7234;DHT22;3658;47.992;10.158;2022-12-04T16:10:56;19.70;42.50
7234;DHT22;3658;47.992;10.158;2022-12-04T16:13:28;19.70;42.80
7234;DHT22;3658;47.992;10.158;2022-12-04T16:15:56;19.70;42.80
7234;DHT22;3658;47.992;10.158;2022-12-04T16:18:25;19.70;42.70
7234;DHT22;3658;47.992;10.158;2022-12-04T16:20:54;19.70;42.60